Time Latitude Longitude Accuracy (66% radius in meters) Altitude (meters) Speed (km/hour) Bearing (degrees) Battery (%) GPS flag
10:15:19 56.387655 43.737082 11 98.599998474121 0 0 42 1 delete
10:14:56 56.387563 43.737169 15 96.300003051758 1.4142135381699 237.19999694824 42 1 delete
10:14:53 56.387490 43.737360 12 95.300003051758 6.0827627182007 154.10000610352 42 1 delete
10:14:28 56.387673 43.737251 30 102.30000305176 0 0 42 1 delete
10:14:27 56.387542 43.737296 36 90.300003051758 1.0307763814926 106.30000305176 42 1 delete
09:44:53 56.387313 43.737307 35 91.400001525879 3.0413813591003 149.60000610352 53 1 delete
09:44:50 56.387401 43.737206 14 91.5 1.8200274705887 160.80000305176 53 1 delete
09:44:37 56.387495 43.737220 5 91.300003051758 1.8200274705887 212.5 53 1 delete
09:44:31 56.387573 43.737313 5 94.099998474121 1.25 177.39999389648 53 1 delete
09:43:55 56.387674 43.737279 5 97.300003051758 1.25 156.89999389648 53 1 delete
09:43:29 56.387676 43.737117 15 97.800003051758 1.3462911844254 125.19999694824 53 1 delete
09:43:23 56.387663 43.736945 12 99.300003051758 1.600781083107 171.10000610352 53 1 delete
09:43:06 56.387795 43.736885 8 103.59999847412 2.4622144699097 68.900001525879 53 1 delete
09:43:02 56.387762 43.736713 8 104.5 1.8200274705887 96.599998474121 53 1 delete
09:42:56 56.387789 43.736543 7 103.30000305176 1.8027756214142 138.60000610352 53 1 delete
09:42:49 56.387830 43.736387 7 98.900001525879 1.3462911844254 131.60000610352 53 1 delete
09:42:44 56.387889 43.736250 6 98.099998474121 1.4142135381699 115.90000152588 53 1 delete
09:42:36 56.387915 43.736077 6 101.5 2.2360680103302 91.199996948242 53 1 delete
09:42:30 56.387935 43.735900 7 99.900001525879 1.1180340051651 53.700000762939 53 1 delete
09:42:18 56.387928 43.735715 11 103.09999847412 2.3048861026764 95.800003051758 53 1 delete
09:42:13 56.387900 43.735513 11 103.30000305176 1.25 99.099998474121 53 1 delete
09:42:07 56.387873 43.735354 13 103.80000305176 1.5811388492584 122.09999847412 53 1 delete
09:42:00 56.387903 43.735184 18 100.40000152588 2.6925823688507 183.30000305176 53 1 delete
09:41:57 56.388007 43.735139 20 100.80000305176 1.5811388492584 171.69999694824 53 1 delete
09:41:51 56.388113 43.735117 15 100.80000305176 1.5811388492584 99.199996948242 53 1 delete
09:34:19 56.388193 43.735030 6 96.5 0.90138781070709 59.799999237061 53 1 delete
09:33:42 56.388143 43.734872 8 92.300003051758 1.600781083107 218.80000305176 53 1 delete
09:32:16 56.388206 43.734989 6 97.699996948242 0 0 53 1 delete
09:31:47 56.388295 43.734936 5 98 1.5811388492584 199.19999694824 53 1 delete
09:31:42 56.388387 43.734948 6 97.400001525879 2.7950849533081 205 53 1 delete
09:31:38 56.388484 43.735025 6 96.5 2.9261748790741 202.80000305176 53 1 delete
09:31:35 56.388592 43.735076 6 96.599998474121 2.9261748790741 256.5 53 1 delete
09:31:32 56.388600 43.735279 5 97.5 3.7831864356995 271.39999389648 53 1 delete
09:31:29 56.388573 43.735490 5 97.099998474121 3.7831864356995 271.20001220703 53 1 delete
09:31:26 56.388561 43.735684 5 97.699996948242 4 273.39999389648 53 1 delete
09:31:23 56.388527 43.735904 5 99 3.75 274.20001220703 53 1 delete
09:31:19 56.388453 43.736034 5 95.5 3.5355339050293 344.79998779297 53 1 delete
09:31:16 56.388345 43.736100 5 93.800003051758 3.8810436725616 347.70001220703 53 1 delete
09:31:13 56.388231 43.736140 5 92 3 337 53 1 delete
09:31:10 56.388149 43.736210 5 92.099998474121 2.5495097637177 332.39999389648 53 1 delete
09:31:05 56.388059 43.736330 5 92.5 6.020797252655 343 53 1 delete
09:31:03 56.387957 43.736404 5 93 6 346.5 53 1 delete
09:31:01 56.387849 43.736453 5 93.599998474121 5 350.79998779297 53 1 delete
09:30:59 56.387750 43.736445 5 95 5 353 53 1 delete
09:30:57 56.387653 43.736451 5 96.900001525879 5.5 31.10000038147 53 1 delete
09:30:55 56.387559 43.736324 5 98.199996948242 5.5 48.599998474121 53 1 delete
09:30:52 56.387468 43.736122 5 98.800003051758 5.5 52.900001525879 53 1 delete
09:30:50 56.387407 43.735982 6 99 5.7716979980469 60 53 1 delete
09:30:48 56.387373 43.735826 6 98.400001525879 8.0156097412109 51.5 53 1 delete
09:30:46 56.387290 43.735621 6 98.5 7.7661123275757 47.200000762939 53 1 delete